Погода Акрина 2 недели

Акри, Бразилия

18 - 30 июля
  • 18июля
    Сегодня
    +17°
    +31°
    Ясно и безоблачно
    ВремяПогодаТемператураВлажностьДавлениеВетер, м/сВероятность осадков
    01:00Ясно и безоблачно+18°C77 %749 мм2.0 м/с5 %
    04:00Ясно и безоблачно+17°C83 %749 мм1.9 м/с5 %
    07:00Ясно и безоблачно+18°C79 %750 мм2.0 м/с5 %
    10:00Ясно и безоблачно+26°C52 %750 мм2.0 м/с5 %
    13:00Ясно и безоблачно+30°C41 %748 мм1.2 м/с5 %
    16:00Ясно и безоблачно+30°C47 %746 мм0.6 м/с5 %
    19:00Ясно и безоблачно+23°C73 %747 мм1.2 м/с5 %
    22:00Ясно и безоблачно+20°C83 %748 мм1.5 м/с5 %
  • 19июля
    Пятница
    +19°
    +32°
    Ясно и безоблачно
    ВремяПогодаТемператураВлажностьДавлениеВетер, м/сВероятность осадков
    01:00Ясно и безоблачно+19°C93 %747 мм1.6 м/с5 %
    04:00Ясно и безоблачно+18°C92 %747 мм1.5 м/с5 %
    07:00Ясно и безоблачно+20°C83 %749 мм1.7 м/с5 %
    10:00Ясно и безоблачно+28°C49 %750 мм1.7 м/с5 %
    13:00Ясно и безоблачно+32°C39 %748 мм0.6 м/с5 %
    16:00Ясно и безоблачно+31°C47 %746 мм0.7 м/с5 %
    19:00Ясно и безоблачно+24°C73 %747 мм1.3 м/с5 %
    22:00Ясно и безоблачно+22°C80 %748 мм1.3 м/с5 %
  • 20июля
    Суббота
    +19°
    +33°
    Ясно и безоблачно
    ВремяПогодаТемператураВлажностьДавлениеВетер, м/сВероятность осадков
    01:00Ясно и безоблачно+20°C86 %747 мм1.8 м/с5 %
    04:00Ясно и безоблачно+19°C84 %748 мм1.4 м/с5 %
    07:00Практически безоблачно+21°C77 %749 мм2.2 м/с5 %
    10:00Практически безоблачно+29°C50 %750 мм2.5 м/с5 %
    13:00Ясно и безоблачно+32°C34 %748 мм2.5 м/с5 %
    16:00Ясно и безоблачно+32°C42 %746 мм1.4 м/с5 %
    19:00Ясно и безоблачно+24°C64 %746 мм1.7 м/с5 %
    22:00Практически безоблачно+22°C72 %747 мм1.6 м/с5 %
  • 21июля
    Воскресенье
    +19°
    +33°
    Ясно и безоблачно
    ВремяПогодаТемператураВлажностьДавлениеВетер, м/сВероятность осадков
    01:00Небольшая облачность+20°C79 %747 мм1.8 м/с5 %
    04:00Небольшая облачность+19°C84 %746 мм1.6 м/с5 %
    07:00Ясно и безоблачно+21°C79 %748 мм1.8 м/с5 %
    10:00Ясно и безоблачно+29°C48 %748 мм1.9 м/с5 %
    13:00Ясно и безоблачно+33°C33 %746 мм1.1 м/с5 %
    16:00Ясно и безоблачно+33°C34 %745 мм0.3 м/с5 %
    19:00Ясно и безоблачно+25°C60 %745 мм0.7 м/с5 %
    22:00Ясно и безоблачно+22°C77 %746 мм1.7 м/с5 %
Мы используем cookies
Соглашаюсь